map of KSL home
KSL - Airport
Location
City:  Kassala, Kassala, Sudan
ICAO:HSKA
IATA:KSL

Details
Type:Airport (Aerodrome, Airfield)
Latitude:1523'15"N (15.387494)
Longitude:3619'44"E (36.328842)
Datum:WGS 1984
Elevation:1671 ft (509 m)
Variation:3.26E (WMM2015v2 magnetic declination)
0.05 annual change
Runways:1
Longest:8202 × 148 ft (2500 × 45 m), paved

Time
Time Zone:UTC+2
Local Time:

Weather
TAF:HSKA 032300Z 0400/0506 36008KT CAVOK

Related Locations
Nearby:
Farthest:KXU: 12353 mi / 19881 km
Katiu [Katiu Airport], PF

Find:

   beyond  
but within

Other Information
Maps:
NOTAMs:
Links:
Sources:

  
  • flag of Sudan
  

Sectional Chart

Flight Planning
at skyvector.com

Satellite Image

Google Maps Satellite view

 

Copyright © 2004-2019 Karl L. Swartz. All rights reserved.
The Great Circle Mapper name and logo are trademarks of the Great Circle Mapper.
All other trademarks mentioned herein belong to their respective owners.
Please see credits for attibutions and further copyright information.

  Follow gcmap on Facebook Follow gcmap on Twitter GCmap on LinkedIn

hCard Microformat

Geo Microformat